CEC 2014 Haywood NORAM/Buff-Qualifier & Prologue | Zone4.ca



CEC 2014 Haywood NORAM/Buff-Qualifier & Prologue

Date: Jan 31, 2014
Official  Results
Location/Lieu: Nakkertok South Nordic Centre
Host Clubs Hôtes: Gatineau-Ottawa XC Clubs

Jury
TD / DT:  Shawn Sinclair 
ATD / DTA  Renée Thibeault 
Dir. Comp. Chief  Jim McCarthy 
CCC Dir. SFC  Dave Dyer 
Heure/Time: 10:00 am
Wind/Vent:  10km/hr Gusty Wind/Vent Dir: SW
Air Temp: -3 Snow/Neige T: -4
Weather/Météo: Sun/Cloud Snow/Neige: Groomed Powder

Juvenile (F) 3 km. Free  Prologue  
PL Bib Name YOB Cat Rnk Div CCC# SFQ# FIS# Club Team Time Diff
1 514 Zoe Pekos 1998 Juvenile (F) 1998 1/37 ON 29275     Team Hardwood   0:07:28.68  
2 504 Heidi Ohrling 1998 Juvenile (F) 1998 2/37 ON 29435     Highland Trailblazers   0:07:29.32 +0.64
3 500 Alison Pouw 1998 Juvenile (F) 1998 3/37 ON 29262     Nakkertok   0:07:34.53 +5.85
4 507 Talia Hennessy 1999 Juvenile (F) 1999 1/38 QC 31822 14082   Nakkertok   0:07:36.17 +7.49
5 524 Sara McLean 1998 Juvenile (F) 1998 4/37 AB 27098     Foothills Nordic ADT 0:07:36.46 +7.78
6 511 Molly-Jane Strum 1998 Juvenile (F) 1998 5/37 AB 27388     Canmore Nordic   0:07:38.14 +9.46
7 560 Natalie Hynes 1998 Juvenile (F) 1998 6/37 YT 31886     Whitehorse XC YTST 0:07:42.60 +13.92
8 549 Hannah Deuling 1999 Juvenile (F) 1999 2/38 YT 31885     Whitehorse XC YTST 0:07:43.17 +14.49
9 518 Makaila Hudson 1998 Juvenile (F) 1998 7/37 NF 29407     Menihek Nordic XCNL 0:07:47.94 +19.26
10 561 Maggie McClure 1998 Juvenile (F) 1998 8/37 NS 30248     Martock XC NSST 0:07:49.13 +20.45
11 509 Tove Halvorsen 1999 Juvenile (F) 1999 3/38 QC 31050 24796   Nakkertok   0:07:49.14 +20.46
12 540 Emma Holmes 1998 Juvenile (F) 1998 9/37 AB 29422     Foothills Nordic   0:07:49.54 +20.86
13 508 Katherine Marshall 1998 Juvenile (F) 1998 10/37 ON 29288     Nakkertok   0:07:50.12 +21.44
14 501 Catherine Reed-Métayer 1998 Juvenile (F) 1998 11/37 QC 27395 13625 3105210 C.N. Skibec   0:07:51.75 +23.07
15 517 Reilley McClure 1999 Juvenile (F) 1999 4/38 ON 31810     Nakkertok   0:07:53.74 +25.06
16 515 Hannah Story-Korman 1999 Juvenile (F) 1999 5/38 ON 29416     Temiskaming Nordic   0:07:53.91 +25.23
17 548 Alia Sanger 1999 Juvenile (F) 1999 6/38 ON 31473 15208   Chelsea Nordiq   0:07:54.48 +25.80
18 521 Lisle Compton 1998 Juvenile (F) 1998 12/37 MB 27487     Kenora Nordic MBST 0:07:55.13 +26.45
19 536 Alexandra Racine 1999 Juvenile (F) 1999 7/38 QC 29499 23087   Orford   0:07:55.24 +26.56
20 503 Marianne Scherrer 1998 Juvenile (F) 1998 13/37 QC 29469 25706   C.N. Skibec   0:07:56.31 +27.63
21 506 Hanna Smith 1998 Juvenile (F) 1998 14/37 ON 29265     Nakkertok   0:07:56.76 +28.08
22 550 Mira Mason 1999 Juvenile (F) 1999 8/38 YT 31891     Whitehorse XC YTST 0:07:59.63 +30.95
23 552 Leya Masson 1999 Juvenile (F) 1999 9/38 QC 31866 25607   Club Nordique MSA   0:08:02.11 +33.43
24 563 Alexis Gee 1998 Juvenile (F) 1998 15/37 YT 31883     Whitehorse XC YTST 0:08:02.76 +34.08
25 525 Dylan Magner 1998 Juvenile (F) 1998 16/37 ON 27405     Team Hardwood   0:08:04.27 +35.59
26 512 Beth Fowler 1998 Juvenile (F) 1998 17/37 AB 27386     Foothills Nordic   0:08:04.41 +35.73
27 551 Hannah Shier 1999 Juvenile (F) 1999 10/38 YT 31890     Whitehorse XC YTST 0:08:04.60 +35.92
28 533 Élisabeth Petitclerc 1999 Juvenile (F) 1999 11/38 QC 31406 15786   Club Nordique MSA   0:08:05.41 +36.73
29 513 Shelby Howard 1998 Juvenile (F) 1998 18/37 ON 29274     Nakkertok   0:08:05.55 +36.87
30 528 Katie Clarke 1999 Juvenile (F) 1999 12/38 ON 31833     Nakkertok   0:08:06.24 +37.56
31 520 Bronwyn Williams 1999 Juvenile (F) 1999 13/38 QC 31834 16614   Nakkertok   0:08:06.70 +38.02
32 526 Marie-Alexandre Lemire 1999 Juvenile (F) 1999 14/38 QC 31827 18986   Nakkertok   0:08:08.06 +39.38
33 532 Meghan Burns 1999 Juvenile (F) 1999 15/38 ON 31412     Nakkertok   0:08:12.86 +44.18
34 530 Allison Crowley 1998 Juvenile (F) 1998 19/37 NF 29404     Avalon Nordic XCNL 0:08:13.99 +45.31
35 569 Julie Mathieu Trottier 1998 Juvenile (F) 1998 20/37 QC 29500 15679   C.N. Skibec   0:08:15.16 +46.48
36 510 Laurianne Grégoire 1998 Juvenile (F) 1998 21/37 QC 30245 22703   Défi T.M.   0:08:17.27 +48.59
37 531 Mackenzie Cameron 1998 Juvenile (F) 1998 22/37 ON 29492     Highland Trailblazers   0:08:18.92 +50.24
38 547 Anna Billowits 1999 Juvenile (F) 1999 16/38 QC 31811 14026   Chelsea Nordiq   0:08:20.31 +51.63
39 537 Sabrina Morris 1999 Juvenile (F) 1999 17/38 ON 31040     Nakkertok   0:08:22.17 +53.49
40 534 Molly Marland 1998 Juvenile (F) 1998 23/37 ON 29296     Nakkertok   0:08:22.25 +53.57
41 527 Marilou Boilard 1998 Juvenile (F) 1998 24/37 QC 30273 15669   C.N. Skibec   0:08:23.10 +54.42
42 516 Erin Cays 1998 Juvenile (F) 1998 25/37 ON 28174     Team Hardwood   0:08:23.23 +54.55
43 505 Jeanne Morin 1998 Juvenile (F) 1998 26/37 QC 28656 25552   Montériski   0:08:26.06 +57.38
44 502 Chloé Lagendyk 1999 Juvenile (F) 1999 18/38 QC 31482 14881   Fondeurs-Laurentides   0:08:29.57 +1:00.89
45 519 Virginie Pellerin 1999 Juvenile (F) 1999 19/38 QC 31483 24135   Fondeurs-Laurentides   0:08:32.04 +1:03.36
46 538 Kendall Saravanamuttoo 1999 Juvenile (F) 1999 20/38 ON 31060     Nakkertok   0:08:36.07 +1:07.39
47 522 Nina Lennie 1998 Juvenile (F) 1998 27/37 ON 29269     Nakkertok   0:08:36.22 +1:07.54
48 523 Alice Burbidge Izquierdo 1998 Juvenile (F) 1998 28/37 QC 30247 16219   Montériski   0:08:36.39 +1:07.71
49 555 Flora Handfield 1999 Juvenile (F) 1999 21/38 QC 31854 22688   C.N. Skibec   0:08:46.22 +1:17.54
50 559 Karly Lockhart 1998 Juvenile (F) 1998 29/37 MB 29412     Kenora Nordic MBST 0:08:51.35 +1:22.67
51 543 Bella Spevak 1999 Juvenile (F) 1999 22/38 ON 31432     Team Hardwood   0:08:51.95 +1:23.27
52 529 Lela Hopper 1998 Juvenile (F) 1998 30/37 ON 29463     Walden Nordic   0:08:52.03 +1:23.35
53 542 Ashley Heroux 1999 Juvenile (F) 1999 23/38 ON 31413     Nakkertok   0:08:52.05 +1:23.37
54 562 Anya Munro 1998 Juvenile (F) 1998 31/37 NS 31859     Martock XC NSST 0:08:54.41 +1:25.73
55 545 Emma Taylor 1999 Juvenile (F) 1999 24/38 NF 31786     Avalon Nordic XCNL 0:08:55.25 +1:26.57
56 558 Chloé Gay-Guérin 1999 Juvenile (F) 1999 25/38 QC 31792 21136   Chelsea Nordiq   0:08:58.35 +1:29.67
57 544 Kate Richards 1999 Juvenile (F) 1999 26/38 ON 31414     Walden Nordic   0:08:58.92 +1:30.24
58 565 Claire Hensrud 1999 Juvenile (F) 1999 27/38 MB 31875     Kenora Nordic MBST 0:09:00.42 +1:31.74
59 539 Katja Zbogar 1998 Juvenile (F) 1998 32/37 ON 30231     Team Hardwood   0:09:01.81 +1:33.13
60 546 Jeanne Carrier Carpentier 1999 Juvenile (F) 1999 28/38 QC 31793 18332   Orford   0:09:05.96 +1:37.28
61 554 Tiana Little 1999 Juvenile (F) 1999 29/38 QC 31817 27263   Chelsea Nordiq   0:09:07.33 +1:38.65
62 553 Michelle Landry 1999 Juvenile (F) 1999 30/38 NB 31877     Boules de Neige NBST 0:09:07.63 +1:38.95
63 535 Kate Beirnes 1998 Juvenile (F) 1998 33/37 ON 29389     Georgian Nordic   0:09:08.92 +1:40.24
64 574 Brook Martin 1998 Juvenile (F) 1998 34/37 NB       Wostawea NBST 0:09:11.08 +1:42.40
65 556 Hannah Estabrook 1999 Juvenile (F) 1999 31/38 NS 32890     Martock XC   0:09:13.68 +1:45.00
66 568 Sarah Wilhelmina Van Hoffen 1998 Juvenile (F) 1998 35/37 QC 31486 18168   Fondeurs-Laurentides   0:09:21.88 +1:53.20
67 541 Sierra Leclerc 1999 Juvenile (F) 1999 32/38 QC 31790 14801   Chelsea Nordiq   0:09:22.89 +1:54.21
68 557 Cloée Daigle 1999 Juvenile (F) 1999 33/38 NB 31884     Boules de Neige NBST 0:09:24.42 +1:55.74
69 573 Mélanie Hamel 1999 Juvenile (F) 1999 34/38 NB       Wostawea NBST 0:09:28.16 +1:59.48
70 571 Juliana Luiker 1999 Juvenile (F) 1999 35/38 NB       Wostawea NBST 0:09:35.31 +2:06.63
71 570 Adrianna Sullivan 1999 Juvenile (F) 1999 36/38 ON       Nakkertok   0:09:36.72 +2:08.04
72 575 Gaële Allard 1999 Juvenile (F) 1999 37/38 QC   22627   C.N. Skibec   0:09:39.71 +2:11.03
73 572 Stéphanie Girard 1999 Juvenile (F) 1999 38/38 QC   18365   Skinouk   0:09:44.01 +2:15.33
74 567 Emmanuelle Harris Ranger 1998 Juvenile (F) 1998 36/37 QC 31450 18800   Skinouk   0:09:49.52 +2:20.84
75 566 Sarah Steele 1980 Juvenile (F) 1998 37/37 ON 32892     Arrowhead Nordic   0:10:13.27 +2:44.59
DNS 564 Marina White 1999 Juvenile (F) 1999 * ON 30219     Big Thunder Nordic   *** ***


Results are posted through an automated system by licenced clubs. For inquires about result corrections please contact the race organizer.

Copyright 2022 - Zone4 Systems zone4.ca       Privacy Policy     Delivery/Refund Policy     Terms of Service    Contact Zone4